À propos.

L'association.

L’Association Fly&Fun a pour objectif de promouvoir l’activité aéronautique et la préservation du patrimoine aérien en proposant à ses membres des activités sur le thème des anciens aéronefs militaires et civils, grâce au regroupement de matériel et de connaissances de passionnés d’aviation.

La camaraderie, la passion de l’aviation & la bonne humeur nous animent au quotidien.

Anecdote.

Son président, Michel Soutiran, fût le premier pilote à faire voler un L39 en France depuis 20 ans, nous célébrons d’ailleurs cette année cette date d’anniversaire ! Accompagné de son chef pilote, Aymeric de Valence, et des autres membres actifs, ils s’attachent à préserver et maintenir ce patrimoine aéronautique.

Michel Soutiran.

Ici la base.

Implantée sur l’aérodrome de Reims-Prunay, Fly&Fun et ses membres profitent de la région champenoise pour voler dans un cadre exceptionnel et partager cette ferveur commune autour de l’aéronautique.

ouvrir google map
METAR :

LFQA 160800Z AUTO 27006KT 240V300 9999 SCT023 BKN028 BKN036 17/12 Q1022


vue en direct sur l'aérodrome
mentions légales politique de confidentialité
Cochet Concept
cx